Time;durP1;ratioP1;P1;durP2;ratioP2;P2;SDS_P1;SDS_P2;PMS_P1;PMS_P2;Temp;Humidity;BMP_temperature;BMP_pressure;BME280_temperature;BME280_humidity;BME280_pressure;Samples;Min_cycle;Max_cycle;Signal;HPM_P1;HPM_P2
2022/04/30 00:01:22;;;;;;;12.77;6.88;;;;;;;6.32;100.00;101714.56;5047040;28;20943;-60
2022/04/30 00:03:47;;;;;;;13.55;8.35;;;;;;;6.25;100.00;101711.16;5048446;28;20024;-60
2022/04/30 00:06:12;;;;;;;10.48;7.05;;;;;;;6.15;100.00;101701.69;5046718;28;20024;-60
2022/04/30 00:08:38;;;;;;;10.38;7.05;;;;;;;6.15;100.00;101707.75;5031354;28;20874;-60
2022/04/30 00:11:07;;;;;;;12.02;7.47;;;;;;;6.12;100.00;101702.56;5047262;28;20522;-60
2022/04/30 00:13:33;;;;;;;9.95;6.50;;;;;;;6.06;100.00;101712.22;5026839;28;20888;-60
2022/04/30 00:15:59;;;;;;;12.05;7.35;;;;;;;6.05;100.00;101698.31;5047688;28;20051;-60
2022/04/30 00:18:25;;;;;;;13.23;8.07;;;;;;;6.03;100.00;101697.47;5048731;28;20031;-60
2022/04/30 00:20:50;;;;;;;11.68;7.65;;;;;;;5.72;100.00;101654.28;5048873;28;20123;-60
2022/04/30 00:23:21;;;;;;;13.10;7.82;;;;;;;5.95;100.00;101703.63;5047079;28;20028;-60
2022/04/30 00:25:50;;;;;;;10.23;7.32;;;;;;;5.91;100.00;101697.59;5047198;28;20781;-60
2022/04/30 00:28:20;;;;;;;16.25;7.75;;;;;;;5.82;100.00;101686.34;5046638;28;20037;-60
2022/04/30 00:30:46;;;;;;;11.10;7.78;;;;;;;5.82;100.00;101700.25;5047592;28;20024;-60
2022/04/30 00:33:14;;;;;;;13.30;7.82;;;;;;;5.83;100.00;101706.34;5030531;28;20506;-59
2022/04/30 00:35:40;;;;;;;12.40;8.13;;;;;;;5.70;100.00;101689.09;5047068;28;20017;-59
2022/04/30 00:38:08;;;;;;;13.65;9.02;;;;;;;5.73;100.00;101696.88;5047927;28;20031;-59
2022/04/30 00:40:33;;;;;;;9.73;7.28;;;;;;;5.62;100.00;101683.94;5047101;28;20032;-59
2022/04/30 00:43:07;;;;;;;11.15;7.97;;;;;;;5.67;100.00;101695.19;5029728;28;20036;-59
2022/04/30 00:45:33;;;;;;;10.75;7.78;;;;;;;5.62;100.00;101697.84;5046901;28;20036;-59
2022/04/30 00:47:58;;;;;;;13.63;7.63;;;;;;;5.56;100.00;101689.22;5049434;28;20035;-59
2022/04/30 00:50:29;;;;;;;13.10;8.18;;;;;;;5.61;100.00;101692.66;5049397;28;20796;-59
2022/04/30 00:53:02;;;;;;;16.00;7.72;;;;;;;5.55;100.00;101693.56;5066428;28;20185;-60
2022/04/30 00:55:30;;;;;;;12.88;7.97;;;;;;;5.52;100.00;101692.72;5051603;28;20027;-59
2022/04/30 00:57:58;;;;;;;9.73;7.35;;;;;;;5.48;100.00;101693.63;5052724;28;20031;-59
2022/04/30 01:00:26;;;;;;;12.20;7.32;;;;;;;5.46;100.00;101693.66;5055485;28;20854;-59
2022/04/30 01:03:07;;;;;;;8.55;7.13;;;;;;;5.45;100.00;101697.13;5059734;28;20024;-59
2022/04/30 01:05:34;;;;;;;21.52;8.57;;;;;;;5.46;100.00;101698.00;5060045;28;20143;-60
2022/04/30 01:08:01;;;;;;;10.45;7.63;;;;;;;5.48;100.00;101696.22;5058978;28;20046;-59
2022/04/30 01:10:29;;;;;;;12.52;8.07;;;;;;;5.47;100.00;101699.72;5062909;28;20039;-59
2022/04/30 01:12:54;;;;;;;9.90;7.25;;;;;;;5.43;100.00;101688.47;5063993;28;20081;-59
2022/04/30 01:15:19;;;;;;;12.45;7.78;;;;;;;5.37;100.00;101687.66;5067672;28;20020;-59
2022/04/30 01:17:45;;;;;;;9.68;6.97;;;;;;;5.38;100.00;101684.16;5069878;28;20036;-59
2022/04/30 01:20:11;;;;;;;10.68;6.60;;;;;;;5.31;100.00;101683.34;5071266;28;20052;-59
2022/04/30 01:22:51;;;;;;;11.38;7.80;;;;;;;5.34;100.00;101687.69;5066963;28;20076;-59
2022/04/30 01:25:19;;;;;;;14.18;8.40;;;;;;;5.26;100.00;101694.69;5063239;28;20032;-59
2022/04/30 01:27:45;;;;;;;12.20;7.90;;;;;;;5.21;100.00;101689.50;5067876;28;20056;-60
2022/04/30 01:30:11;;;;;;;12.18;7.38;;;;;;;5.12;100.00;101671.34;5066623;28;20373;-59
2022/04/30 01:38:12;;;;;;;13.93;8.07;;;;;;;4.83;100.00;101635.09;5068038;28;20043;-59
2022/04/30 01:40:37;;;;;;;12.57;7.40;;;;;;;4.79;100.00;101635.97;5067608;28;20060;-59
2022/04/30 01:43:05;;;;;;;9.68;6.90;;;;;;;5.06;100.00;101689.63;5067866;28;20036;-59
2022/04/30 01:45:31;;;;;;;14.75;7.82;;;;;;;4.97;100.00;101685.31;5067649;28;20117;-60
2022/04/30 01:47:59;;;;;;;12.15;7.88;;;;;;;5.03;100.00;101694.84;5049035;28;20872;-60
2022/04/30 01:50:24;;;;;;;11.20;8.18;;;;;;;4.93;100.00;101667.13;5067695;28;20062;-60
2022/04/30 01:52:50;;;;;;;13.90;7.72;;;;;;;4.98;100.00;101680.97;5067569;28;20020;-60
2022/04/30 01:55:16;;;;;;;11.05;7.05;;;;;;;5.12;100.00;101694.78;5067146;28;20083;-60
2022/04/30 01:57:42;;;;;;;8.95;5.97;;;;;;;5.15;100.00;101687.81;5053917;28;20028;-61
2022/04/30 02:00:14;;;;;;;12.07;7.38;;;;;;;5.20;100.00;101685.19;5046087;28;20035;-60
2022/04/30 02:02:45;;;;;;;8.50;6.85;;;;;;;5.22;100.00;101683.41;5045552;28;20098;-59
2022/04/30 02:05:13;;;;;;;12.57;6.32;;;;;;;5.26;100.00;101686.88;5046283;28;20047;-60
2022/04/30 02:07:42;;;;;;;10.85;6.75;;;;;;;5.21;100.00;101675.59;5047901;28;20089;-60
2022/04/30 02:10:08;;;;;;;9.95;6.65;;;;;;;5.11;100.00;101652.22;5045849;28;20036;-59
2022/04/30 02:12:34;;;;;;;10.70;7.22;;;;;;;5.22;100.00;101677.34;5061033;28;20066;-60
2022/04/30 02:15:00;;;;;;;10.30;6.00;;;;;;;5.19;100.00;101667.81;5058031;28;20143;-60
2022/04/30 02:17:28;;;;;;;12.00;5.88;;;;;;;5.05;100.00;101661.84;5025018;28;20028;-60
2022/04/30 02:22:42;;;;;;;11.77;6.50;;;;;;;5.01;100.00;101666.19;5041135;28;20048;-61
2022/04/30 02:25:09;;;;;;;12.63;6.25;;;;;;;4.87;100.00;101643.72;5021387;28;20048;-60
2022/04/30 02:27:39;;;;;;;9.88;6.25;;;;;;;4.99;100.00;101670.56;5036628;28;20022;-60
2022/04/30 02:30:14;;;;;;;8.13;5.65;;;;;;;4.95;100.00;101676.66;5034605;28;20135;-60
2022/04/30 02:32:57;;;;;;;9.73;6.28;;;;;;;4.90;100.00;101673.22;5032830;28;20090;-60
2022/04/30 02:35:25;;;;;;;10.20;6.30;;;;;;;4.85;100.00;101666.31;5029207;28;20223;-60
2022/04/30 02:37:52;;;;;;;8.68;5.45;;;;;;;4.85;100.00;101672.38;5030413;28;20038;-60
2022/04/30 02:40:20;;;;;;;9.18;5.93;;;;;;;4.78;100.00;101665.50;5029349;28;20035;-60
2022/04/30 02:42:46;;;;;;;8.23;6.05;;;;;;;4.70;100.00;101656.00;5029656;28;20024;-60
2022/04/30 02:45:13;;;;;;;10.05;6.38;;;;;;;4.34;100.00;101594.59;5028630;28;20028;-59
2022/04/30 02:47:40;;;;;;;9.63;5.97;;;;;;;4.64;100.00;101651.69;5027666;28;20021;-60
2022/04/30 02:50:07;;;;;;;8.95;5.97;;;;;;;4.68;100.00;101663.81;5027956;28;20909;-60
2022/04/30 02:52:33;;;;;;;8.68;6.60;;;;;;;4.68;100.00;101663.81;5011184;28;20938;-60
2022/04/30 02:54:58;;;;;;;13.18;6.47;;;;;;;4.61;100.00;101656.91;5027815;28;20028;-60
2022/04/30 02:57:24;;;;;;;12.20;6.95;;;;;;;4.48;100.00;101637.03;5027685;28;20021;-60
2022/04/30 02:59:55;;;;;;;6.90;5.78;;;;;;;4.45;100.00;101644.88;5029396;28;20097;-60
2022/04/30 03:02:23;;;;;;;10.35;6.68;;;;;;;4.48;100.00;101657.84;5028056;28;20039;-60
2022/04/30 03:04:51;;;;;;;9.85;6.93;;;;;;;4.46;100.00;101662.22;5029863;28;20035;-60
2022/04/30 03:07:18;;;;;;;9.88;6.50;;;;;;;4.40;100.00;101657.88;5028964;28;20032;-60
2022/04/30 03:09:46;;;;;;;13.30;6.90;;;;;;;4.41;100.00;101667.44;5027353;28;20035;-60
2022/04/30 03:12:12;;;;;;;9.77;7.00;;;;;;;4.29;100.00;101654.44;5027493;28;20035;-60
2022/04/30 03:14:38;;;;;;;11.85;6.93;;;;;;;4.28;100.00;101650.16;5027409;28;20030;-60
2022/04/30 03:22:31;;;;;;;10.50;6.68;;;;;;;4.25;100.00;101670.09;5027435;28;20047;-60
2022/04/30 03:25:04;;;;;;;11.90;7.30;;;;;;;4.22;100.00;101673.59;5029905;28;20032;-60
2022/04/30 03:27:32;;;;;;;12.13;7.47;;;;;;;4.13;100.00;101656.25;5029816;28;20062;-59
2022/04/30 03:29:57;;;;;;;12.93;7.18;;;;;;;3.98;100.00;101639.88;5028871;28;20028;-59
2022/04/30 03:32:24;;;;;;;12.15;7.93;;;;;;;4.13;100.00;101666.66;5029957;28;20945;-59
2022/04/30 03:34:50;;;;;;;14.35;7.68;;;;;;;4.10;100.00;101661.47;5011079;28;20048;-59
2022/04/30 03:37:18;;;;;;;10.98;7.15;;;;;;;4.02;100.00;101663.22;5028163;28;20034;-59
2022/04/30 03:39:43;;;;;;;16.55;8.35;;;;;;;4.05;100.00;101659.78;5026678;28;20139;-60
2022/04/30 03:42:08;;;;;;;12.20;7.13;;;;;;;4.00;100.00;101657.19;5007815;28;20858;-60
2022/04/30 03:44:34;;;;;;;14.23;8.90;;;;;;;3.88;100.00;101635.56;5024690;28;20063;-60
2022/04/30 03:46:59;;;;;;;15.63;9.48;;;;;;;4.00;100.00;101661.50;5024948;28;20064;-60
2022/04/30 03:49:25;;;;;;;13.90;9.85;;;;;;;3.87;100.00;101644.22;5026180;28;20850;-60
2022/04/30 03:51:50;;;;;;;15.55;10.00;;;;;;;3.91;100.00;101657.22;5025477;28;20085;-60
2022/04/30 03:54:16;;;;;;;14.80;10.32;;;;;;;3.90;100.00;101660.69;5025642;28;20917;-60
2022/04/30 03:56:41;;;;;;;18.33;12.10;;;;;;;3.81;100.00;101654.66;5025198;28;20899;-60
2022/04/30 03:59:06;;;;;;;13.48;9.20;;;;;;;3.77;100.00;101647.72;5025849;28;20101;-59
2022/04/30 04:01:32;;;;;;;11.77;8.75;;;;;;;3.78;100.00;101662.44;5028107;28;20029;-59
2022/04/30 04:04:00;;;;;;;13.43;8.52;;;;;;;3.76;100.00;101661.56;5026521;28;20831;-60
2022/04/30 04:06:26;;;;;;;11.45;8.27;;;;;;;3.61;100.00;101641.69;5026380;28;20024;-59
2022/04/30 04:08:54;;;;;;;12.07;8.82;;;;;;;3.63;100.00;101649.47;5008769;28;20139;-59
2022/04/30 04:11:22;;;;;;;12.55;8.60;;;;;;;3.67;100.00;101667.66;5026930;28;20098;-60
2022/04/30 04:19:18;;;;;;;14.02;9.30;;;;;;;3.65;100.00;101674.56;5047022;28;20043;-60
2022/04/30 04:21:43;;;;;;;13.35;8.65;;;;;;;3.64;100.00;101675.47;5048420;28;20032;-60
2022/04/30 04:26:53;;;;;;;12.75;8.30;;;;;;;3.63;100.00;101672.84;5046628;28;20051;-59
2022/04/30 04:29:18;;;;;;;10.95;8.00;;;;;;;3.58;100.00;101671.13;5047974;28;20020;-60
2022/04/30 04:31:44;;;;;;;15.65;9.20;;;;;;;3.12;100.00;101594.13;5029263;28;20094;-60
2022/04/30 04:34:10;;;;;;;17.35;9.07;;;;;;;3.65;100.00;101676.34;5050605;28;20051;-60
2022/04/30 04:36:36;;;;;;;15.02;9.55;;;;;;;3.69;100.00;101685.84;5048968;28;20131;-60
2022/04/30 04:39:06;;;;;;;20.58;10.57;;;;;;;3.62;100.00;101668.56;5047915;28;20127;-60
2022/04/30 04:41:32;;;;;;;16.23;10.70;;;;;;;3.63;100.00;101665.94;5031850;28;20800;-60
2022/04/30 04:43:57;;;;;;;15.98;11.50;;;;;;;3.73;100.00;101677.16;5046972;28;20149;-60
2022/04/30 04:46:23;;;;;;;13.43;10.75;;;;;;;3.81;100.00;101683.22;5047941;28;20044;-60
2022/04/30 04:48:48;;;;;;;17.85;10.80;;;;;;;3.45;100.00;101619.19;5062911;28;20020;-60
2022/04/30 04:51:13;;;;;;;13.48;10.35;;;;;;;3.88;100.00;101678.03;5046478;28;20094;-60
2022/04/30 04:53:39;;;;;;;18.05;11.07;;;;;;;3.96;100.00;101689.25;5047826;28;20035;-60
2022/04/30 04:56:06;;;;;;;15.48;10.70;;;;;;;3.94;100.00;101678.00;5047672;28;20020;-60
2022/04/30 04:58:31;;;;;;;18.25;9.82;;;;;;;4.02;100.00;101686.63;5047487;28;20028;-60
2022/04/30 05:00:57;;;;;;;16.30;10.25;;;;;;;4.08;100.00;101691.84;5046545;28;20034;-60
2022/04/30 05:03:22;;;;;;;15.25;10.68;;;;;;;4.05;100.00;101676.25;5046639;28;20881;-60
2022/04/30 05:05:48;;;;;;;12.30;8.85;;;;;;;4.18;100.00;101692.66;5061842;28;20092;-60
2022/04/30 05:08:13;;;;;;;17.88;10.77;;;;;;;4.19;100.00;101690.94;5092920;28;20051;-60
2022/04/30 05:10:38;;;;;;;14.15;10.20;;;;;;;4.33;100.00;101702.13;5092650;28;20024;-60
2022/04/30 05:13:04;;;;;;;15.00;9.93;;;;;;;4.37;100.00;101690.84;5092853;28;20382;-60
2022/04/30 05:15:29;;;;;;;11.82;9.20;;;;;;;4.52;100.00;101698.59;5057589;28;20020;-60
2022/04/30 05:17:55;;;;;;;13.45;10.02;;;;;;;4.57;100.00;101689.91;5061424;28;20158;-60
2022/04/30 05:20:21;;;;;;;17.75;9.82;;;;;;;4.69;100.00;101694.19;5046017;28;20028;-60
2022/04/30 05:22:46;;;;;;;17.38;10.07;;;;;;;4.84;100.00;101704.50;5044751;28;20016;-60
2022/04/30 05:25:13;;;;;;;15.90;9.90;;;;;;;4.92;100.00;101710.53;5047398;28;20085;-60
2022/04/30 05:27:38;;;;;;;15.77;10.23;;;;;;;4.84;100.00;101690.63;5046016;28;20024;-60
2022/04/30 05:30:04;;;;;;;17.15;9.75;;;;;;;5.02;100.00;101708.75;5026248;28;20032;-61
2022/04/30 05:32:30;;;;;;;14.40;9.07;;;;;;;4.86;100.00;101668.91;5043941;28;20828;-60
2022/04/30 05:34:55;;;;;;;15.00;9.63;;;;;;;5.11;100.00;101711.28;5045441;28;20024;-60
2022/04/30 05:37:20;;;;;;;13.90;8.95;;;;;;;5.06;100.00;101703.50;5044503;28;20056;-60
2022/04/30 05:39:46;;;;;;;10.20;8.75;;;;;;;5.05;100.00;101699.16;5048153;28;20040;-60
2022/04/30 05:42:11;;;;;;;14.18;8.82;;;;;;;5.06;100.00;101703.50;5047895;28;20032;-60
2022/04/30 05:44:36;;;;;;;14.13;9.40;;;;;;;4.83;100.00;101653.31;5047982;28;20024;-60
2022/04/30 05:47:02;;;;;;;13.27;10.02;;;;;;;5.03;100.00;101682.69;5047796;28;20206;-60
2022/04/30 05:49:27;;;;;;;15.90;10.25;;;;;;;5.26;100.00;101712.91;5048421;28;20800;-60
2022/04/30 05:51:53;;;;;;;13.25;9.65;;;;;;;5.32;100.00;101720.69;5048084;28;20028;-60
2022/04/30 05:54:19;;;;;;;12.55;8.95;;;;;;;5.34;100.00;101713.75;5047821;28;20026;-60
2022/04/30 05:56:45;;;;;;;18.63;9.52;;;;;;;5.30;100.00;101699.00;5045372;28;20024;-60
2022/04/30 05:59:10;;;;;;;15.38;10.55;;;;;;;5.40;100.00;101711.06;5040611;28;20352;-60
2022/04/30 06:01:35;;;;;;;14.32;10.40;;;;;;;5.32;100.00;101679.84;5041149;28;20110;-60
2022/04/30 06:04:02;;;;;;;13.15;9.30;;;;;;;5.55;100.00;101714.41;5046280;28;20039;-60
2022/04/30 06:06:27;;;;;;;17.50;10.20;;;;;;;5.64;100.00;101714.31;5048074;28;20024;-59
2022/04/30 06:08:52;;;;;;;14.02;9.48;;;;;;;5.75;100.00;101719.44;5050315;28;20121;-60
2022/04/30 06:11:18;;;;;;;18.73;9.93;;;;;;;5.68;100.00;101689.94;5048759;28;20027;-59
2022/04/30 06:13:43;;;;;;;14.45;9.93;;;;;;;5.97;100.00;101718.41;5047680;28;20082;-59
2022/04/30 06:16:08;;;;;;;13.88;9.55;;;;;;;6.00;100.00;101707.94;5047215;28;20048;-60
2022/04/30 06:18:34;;;;;;;14.63;9.77;;;;;;;6.13;100.00;101730.41;5049152;28;20861;-60
2022/04/30 06:20:59;;;;;;;13.52;9.25;;;;;;;6.21;100.00;101717.28;5048628;28;20043;-59
2022/04/30 06:23:25;;;;;;;15.63;9.68;;;;;;;6.30;100.00;101731.97;5048088;28;20036;-60
2022/04/30 06:25:50;;;;;;;11.70;9.07;;;;;;;6.38;100.00;101732.75;5049028;28;20024;-60
2022/04/30 06:28:16;;;;;;;13.80;9.50;;;;;;;6.53;100.00;101735.16;5029856;28;20032;-59
2022/04/30 06:30:42;;;;;;;13.93;8.77;;;;;;;6.58;100.00;101733.38;5047401;28;20036;-59
2022/04/30 06:33:08;;;;;;;13.40;8.75;;;;;;;6.59;100.00;101735.13;5047857;28;20024;-59
2022/04/30 06:35:33;;;;;;;16.52;8.57;;;;;;;6.60;100.00;101729.84;5048028;28;20036;-59
2022/04/30 06:37:59;;;;;;;15.45;9.10;;;;;;;6.71;100.00;101734.94;5049166;28;20749;-59
2022/04/30 06:40:24;;;;;;;10.73;9.27;;;;;;;6.81;100.00;101728.72;5047965;28;20039;-59
2022/04/30 06:42:50;;;;;;;12.70;8.40;;;;;;;6.81;100.00;101714.78;5049659;28;20072;-59
2022/04/30 06:45:17;;;;;;;15.27;8.60;;;;;;;6.95;100.00;101737.25;5047119;28;20750;-59
2022/04/30 06:47:42;;;;;;;18.52;8.77;;;;;;;7.00;100.00;101743.25;5047544;28;20126;-59
2022/04/30 06:50:08;;;;;;;15.20;9.55;;;;;;;7.05;100.00;101746.69;5048342;28;20989;-59
2022/04/30 06:52:34;;;;;;;15.10;8.52;;;;;;;7.17;100.00;101741.25;5048200;28;20023;-59
2022/04/30 06:57:46;;;;;;;12.57;7.97;;;;;;;7.40;100.00;101745.31;5047315;28;20042;-59
2022/04/30 07:02:56;;;;;;;9.82;7.55;;;;;;;7.43;100.00;101745.25;5048655;28;20117;-59
2022/04/30 07:05:22;;;;;;;10.73;8.25;;;;;;;7.47;100.00;101742.53;5046559;28;20887;-59
2022/04/30 07:07:47;;;;;;;13.25;8.60;;;;;;;7.57;100.00;101745.91;5044484;28;20024;-59
2022/04/30 07:10:13;;;;;;;13.75;8.05;;;;;;;7.64;100.00;101742.25;5047360;28;20036;-59
2022/04/30 07:12:38;;;;;;;11.35;7.68;;;;;;;7.61;100.00;101742.31;5047737;28;20032;-59
2022/04/30 07:15:04;;;;;;;16.38;8.65;;;;;;;7.53;100.00;101738.97;5047069;28;20035;-59
2022/04/30 07:17:29;;;;;;;12.88;8.75;;;;;;;7.59;100.00;101734.50;5046575;28;20031;-59
2022/04/30 07:19:54;;;;;;;12.93;7.75;;;;;;;7.66;100.00;101735.28;5046596;28;20059;-59
2022/04/30 07:22:20;;;;;;;13.10;7.90;;;;;;;7.72;100.00;101743.00;5047395;28;20028;-59
2022/04/30 07:24:45;;;;;;;14.30;7.32;;;;;;;7.68;100.00;101733.47;5046270;28;20031;-59
2022/04/30 07:27:10;;;;;;;10.63;7.40;;;;;;;7.80;100.00;101728.06;5031184;28;20025;-59
2022/04/30 07:29:38;;;;;;;14.38;8.10;;;;;;;7.62;100.00;101704.81;5030383;28;20891;-59
2022/04/30 07:32:07;;;;;;;10.20;6.70;;;;;;;7.54;100.00;101698.84;5028270;28;20949;-59
2022/04/30 07:34:33;;;;;;;8.70;6.03;;;;;;;7.79;100.00;101736.78;5030474;28;20032;-59
2022/04/30 07:36:58;;;;;;;9.52;5.65;;;;;;;7.79;100.00;101752.50;5034747;28;20142;-60
2022/04/30 07:39:24;;;;;;;6.38;4.00;;;;;;;7.69;100.00;101743.06;5046105;28;20032;-60
2022/04/30 07:41:49;;;;;;;8.15;5.15;;;;;;;7.66;100.00;101745.75;5046948;28;20028;-59
2022/04/30 07:44:15;;;;;;;7.30;4.25;;;;;;;7.70;100.00;101756.09;5047768;28;20089;-59
2022/04/30 07:46:40;;;;;;;9.18;5.15;;;;;;;7.70;100.00;101742.19;5047341;28;20028;-59
2022/04/30 07:49:06;;;;;;;7.30;4.90;;;;;;;7.79;100.00;101751.63;5046974;28;20090;-59
2022/04/30 07:51:34;;;;;;;8.05;4.53;;;;;;;7.81;100.00;101761.16;5048072;28;20067;-59
2022/04/30 07:54:04;;;;;;;7.47;4.78;;;;;;;7.70;100.00;101722.09;5029289;28;20921;-60
2022/04/30 07:56:30;;;;;;;7.38;4.32;;;;;;;7.88;100.00;101720.91;5046868;28;20059;-59
2022/04/30 07:58:55;;;;;;;6.78;4.68;;;;;;;8.46;100.00;101757.38;5046867;28;20031;-59
2022/04/30 08:01:21;;;;;;;7.28;4.22;;;;;;;8.89;100.00;101740.78;5046615;28;20099;-60
2022/04/30 08:03:46;;;;;;;7.43;4.63;;;;;;;9.27;100.00;101726.78;5045468;28;20029;-59
2022/04/30 08:06:11;;;;;;;9.93;4.68;;;;;;;9.76;100.00;101737.84;5044946;28;20024;-60
2022/04/30 08:08:37;;;;;;;9.13;4.72;;;;;;;10.00;100.00;101736.34;5045499;28;20131;-59
2022/04/30 08:11:03;;;;;;;5.57;3.90;;;;;;;10.35;100.00;101738.03;5029221;28;20035;-59
2022/04/30 08:13:28;;;;;;;7.78;4.28;;;;;;;10.55;100.00;101733.06;5047655;28;20184;-60
2022/04/30 08:15:54;;;;;;;10.77;4.05;;;;;;;10.59;100.00;101724.22;5047763;28;20956;-60
2022/04/30 08:18:19;;;;;;;7.35;3.30;;;;;;;10.72;100.00;101730.81;5047010;28;20031;-60
2022/04/30 08:20:46;;;;;;;7.40;4.25;;;;;;;10.77;100.00;101723.69;5046054;28;20894;-60
2022/04/30 08:23:12;;;;;;;6.32;4.05;;;;;;;10.87;100.00;101724.25;5046060;28;20024;-60
2022/04/30 08:25:38;;;;;;;7.70;4.50;;;;;;;10.65;100.00;101710.88;5046645;28;20101;-59
2022/04/30 08:28:04;;;;;;;6.95;4.25;;;;;;;10.52;100.00;101704.25;5046303;28;20064;-59
2022/04/30 08:30:31;;;;;;;10.52;4.53;;;;;;;10.37;100.00;101736.25;5044940;28;20781;-59
2022/04/30 08:32:57;;;;;;;4.82;3.20;;;;;;;9.84;100.00;101725.38;5045053;28;20031;-59
2022/04/30 08:35:23;;;;;;;3.47;2.45;;;;;;;9.51;100.00;101731.47;5044958;28;20139;-59
2022/04/30 08:37:48;;;;;;;4.68;3.05;;;;;;;9.38;100.00;101743.16;5045440;28;20031;-60
2022/04/30 08:40:14;;;;;;;7.35;4.00;;;;;;;9.25;100.00;101732.09;5046725;28;20043;-60
2022/04/30 08:42:39;;;;;;;6.30;3.80;;;;;;;9.29;100.00;101723.25;5045321;28;20060;-65
2022/04/30 08:45:08;;;;;;;8.35;4.20;;;;;;;9.38;100.00;101724.78;5045238;28;20067;-59
2022/04/30 08:47:41;;;;;;;7.78;3.97;;;;;;;9.74;100.00;101727.38;5032753;28;20452;-59
2022/04/30 08:50:10;;;;;;;6.93;4.10;;;;;;;10.30;100.00;101729.44;5032694;28;20896;-60
2022/04/30 08:52:36;;;;;;;6.13;3.85;;;;;;;10.74;100.00;101710.63;5028916;28;20105;-60
2022/04/30 08:55:03;;;;;;;6.60;3.85;;;;;;;11.08;100.00;101711.34;5039004;28;20027;-60
2022/04/30 08:57:29;;;;;;;9.75;4.72;;;;;;;11.25;100.00;101731.84;5045263;28;20914;-60
2022/04/30 08:59:54;;;;;;;7.30;3.38;;;;;;;11.31;100.00;101723.75;5045596;28;20031;-60
2022/04/30 09:02:20;;;;;;;6.13;2.72;;;;;;;11.12;100.00;101718.19;5027952;28;20040;-59
2022/04/30 09:04:48;;;;;;;6.75;3.35;;;;;;;11.13;100.00;101719.94;5046290;28;20028;-59
2022/04/30 09:07:24;;;;;;;9.00;3.35;;;;;;;10.92;100.00;101706.56;5045227;28;20895;-59
2022/04/30 09:09:58;;;;;;;5.53;3.08;;;;;;;10.93;100.00;101705.66;5027477;28;20036;-59
2022/04/30 09:12:23;;;;;;;6.43;3.23;;;;;;;10.93;100.00;101708.28;5033394;28;20126;-59
2022/04/30 09:14:49;;;;;;;8.35;3.15;;;;;;;10.71;100.00;101703.69;5029264;28;20793;-60
2022/04/30 09:17:15;;;;;;;6.88;3.67;;;;;;;9.97;100.00;101674.25;5011345;28;20517;-60
2022/04/30 09:19:54;;;;;;;7.60;3.78;;;;;;;10.17;100.00;101695.59;5041575;28;20039;-61
2022/04/30 09:22:27;;;;;;;7.97;3.20;;;;;;;10.08;100.00;101708.97;5040885;28;20082;-60
2022/04/30 09:24:53;;;;;;;10.83;3.53;;;;;;;10.04;100.00;101693.31;5044938;28;20242;-59
2022/04/30 09:27:19;;;;;;;10.57;4.13;;;;;;;9.90;100.00;101695.47;5032238;28;20558;-59
2022/04/30 09:29:45;;;;;;;4.72;3.17;;;;;;;9.77;100.00;101681.81;5030874;28;20052;-59
2022/04/30 09:32:18;;;;;;;4.82;2.92;;;;;;;9.91;100.00;101695.44;5044447;28;20432;-58
2022/04/30 09:37:41;;;;;;;4.97;2.95;;;;;;;10.07;100.00;101691.47;5029482;28;20963;-58
2022/04/30 09:40:13;;;;;;;4.95;3.33;;;;;;;10.08;100.00;101693.22;5029747;28;20970;-60
2022/04/30 09:42:38;;;;;;;5.07;3.13;;;;;;;10.14;100.00;101681.69;5030402;28;20044;-59
2022/04/30 09:45:05;;;;;;;4.55;2.80;;;;;;;10.22;100.00;101659.59;5030474;28;20099;-61
2022/04/30 09:47:34;;;;;;;4.45;2.58;;;;;;;10.51;100.00;101681.53;5028399;28;20157;-59
2022/04/30 09:53:56;;;;;;;3.63;2.45;;;;;;;10.65;93.80;101685.47;5030053;28;20106;-59
2022/04/30 09:55:53;;;;;;;5.07;2.38;;;;;;;10.43;92.50;101678.25;5028499;28;20033;-59
2022/04/30 09:58:26;;;;;;;5.75;2.70;;;;;;;10.28;91.50;101669.03;5028597;28;20024;-59
2022/04/30 10:00:57;;;;;;;3.28;2.20;;;;;;;10.29;90.43;101677.78;5031396;28;20036;-59
2022/04/30 10:03:33;;;;;;;3.38;2.08;;;;;;;10.44;97.55;101667.72;5028971;28;20063;-60
2022/04/30 10:06:08;;;;;;;5.68;2.45;;;;;;;10.80;95.27;101664.88;5029519;28;20090;-60
2022/04/30 10:08:36;;;;;;;8.07;2.40;;;;;;;11.01;94.21;101653.69;5029006;28;20036;-59
2022/04/30 10:11:07;;;;;;;3.60;2.20;;;;;;;11.19;86.76;101666.25;5035588;28;20028;-58
2022/04/30 10:14:02;;;;;;;2.65;1.55;;;;;;;11.39;87.86;101660.34;5048429;28;20036;-60
2022/04/30 10:16:28;;;;;;;2.90;1.70;;;;;;;11.42;83.19;101652.34;5027855;28;20039;-60
2022/04/30 10:19:11;;;;;;;4.25;2.20;;;;;;;11.65;83.90;101655.06;5064313;28;20081;-60
2022/04/30 10:21:37;;;;;;;3.80;2.30;;;;;;;11.85;83.97;101662.28;5048252;28;20505;-58
2022/04/30 10:24:04;;;;;;;3.83;2.38;;;;;;;11.98;83.58;101661.81;5049552;28;20943;-59
2022/04/30 10:26:29;;;;;;;4.53;2.30;;;;;;;12.08;84.70;101644.75;5048044;28;20027;-59
2022/04/30 10:29:02;;;;;;;5.85;2.13;;;;;;;12.36;81.90;101643.75;5047826;28;20085;-59
2022/04/30 10:31:27;;;;;;;4.82;2.30;;;;;;;12.57;81.43;101645.56;5046928;28;20094;-60
2022/04/30 10:33:53;;;;;;;4.90;2.00;;;;;;;12.63;78.74;101627.75;5048611;28;20085;-59
2022/04/30 10:36:21;;;;;;;5.22;1.90;;;;;;;12.57;78.05;101645.56;5031973;28;20024;-60
2022/04/30 10:38:55;;;;;;;3.95;1.48;;;;;;;12.90;77.73;101625.78;5050126;28;20063;-60
2022/04/30 10:41:20;;;;;;;3.28;1.90;;;;;;;13.37;75.42;101630.94;5049366;28;20043;-60
2022/04/30 10:43:46;;;;;;;5.03;2.30;;;;;;;13.69;74.26;101618.06;5049904;28;20316;-60
2022/04/30 10:46:18;;;;;;;5.97;2.97;;;;;;;14.07;74.27;101629.59;5049661;28;20031;-60
2022/04/30 10:48:44;;;;;;;3.72;2.67;;;;;;;13.64;71.97;101619.19;5049251;28;20461;-60
2022/04/30 10:51:11;;;;;;;4.30;2.50;;;;;;;13.11;73.08;101621.47;5047986;28;20024;-60
2022/04/30 10:53:43;;;;;;;4.30;2.35;;;;;;;12.93;75.51;101620.38;5049061;28;20024;-60
2022/04/30 10:56:09;;;;;;;7.13;2.80;;;;;;;12.92;73.93;101618.66;5033180;28;20024;-59
2022/04/30 10:58:36;;;;;;;5.75;2.35;;;;;;;13.00;73.42;101621.84;5048837;28;20028;-60
2022/04/30 11:01:12;;;;;;;3.25;1.75;;;;;;;12.89;74.64;101587.13;5049006;28;20143;-60
2022/04/30 11:03:40;;;;;;;6.72;2.05;;;;;;;13.38;75.75;101600.97;5048520;28;20120;-61
2022/04/30 11:06:07;;;;;;;7.55;2.83;;;;;;;13.26;74.31;101566.25;5050405;28;20035;-60
2022/04/30 11:08:32;;;;;;;3.25;2.17;;;;;;;13.58;73.77;101556.94;5031288;28;20044;-60
2022/04/30 11:10:58;;;;;;;4.35;2.08;;;;;;;14.03;72.87;101604.22;5048693;28;20903;-60
2022/04/30 11:13:24;;;;;;;6.00;2.25;;;;;;;14.22;69.30;101601.59;5040079;28;20029;-60
2022/04/30 11:15:49;;;;;;;6.18;2.55;;;;;;;14.08;69.17;101596.94;4996050;28;20930;-60
2022/04/30 11:18:19;;;;;;;4.00;2.25;;;;;;;14.07;69.89;101595.22;5028033;28;20028;-60
2022/04/30 11:20:45;;;;;;;5.07;2.28;;;;;;;14.58;73.11;101591.13;5028452;28;20190;-60
2022/04/30 11:23:20;;;;;;;5.40;2.13;;;;;;;15.34;72.90;101585.56;5009953;28;20025;-60
2022/04/30 11:25:45;;;;;;;3.85;1.92;;;;;;;16.03;68.39;101569.56;5011334;28;20046;-60
2022/04/30 11:28:11;;;;;;;4.80;2.47;;;;;;;15.93;63.83;101584.25;5036323;28;20909;-60
2022/04/30 11:30:37;;;;;;;5.97;3.20;;;;;;;15.09;65.31;101585.94;5030032;28;20507;-60
2022/04/30 11:33:03;;;;;;;3.78;2.33;;;;;;;14.49;66.51;101551.88;5030091;28;20036;-60
2022/04/30 11:35:28;;;;;;;5.53;2.42;;;;;;;14.18;67.35;101542.72;5011405;28;20040;-59
2022/04/30 11:37:54;;;;;;;4.95;3.42;;;;;;;14.25;67.56;101565.31;5027519;28;20129;-59
2022/04/30 11:40:21;;;;;;;4.65;2.65;;;;;;;14.28;67.54;101570.44;5009632;28;20882;-60
2022/04/30 11:43:00;;;;;;;6.40;2.33;;;;;;;14.32;67.71;101579.09;5044055;28;21006;-60
2022/04/30 11:45:26;;;;;;;4.07;2.47;;;;;;;16.20;69.48;101570.38;5027555;28;20270;-61
2022/04/30 11:47:52;;;;;;;5.88;2.72;;;;;;;20.32;63.84;101569.88;5027172;28;20024;-60
2022/04/30 11:50:17;;;;;;;5.40;3.20;;;;;;;22.31;54.90;101560.81;5044450;28;20137;-59
2022/04/30 11:52:43;;;;;;;7.22;3.08;;;;;;;21.75;51.95;101578.69;5026494;28;20032;-59